sensor_id;sensor_type;location;lat;lon;timestamp;pressure;altitude;pressure_sealevel;temperature;humidity
61674;BME280;47573;43.832;5.974;2023-05-18T00:01:32;95042.44;;;25.94;65.53
61674;BME280;47573;43.832;5.974;2023-05-18T00:08:14;95034.22;;;25.84;65.30
61674;BME280;47573;43.832;5.974;2023-05-18T00:14:54;95029.25;;;25.81;65.30
61674;BME280;47573;43.832;5.974;2023-05-18T00:21:35;95033.63;;;25.77;65.05
61674;BME280;47573;43.832;5.974;2023-05-18T00:28:17;95033.63;;;25.72;64.99
61674;BME280;47573;43.832;5.974;2023-05-18T00:34:57;95033.03;;;25.65;64.99
61674;BME280;47573;43.832;5.974;2023-05-18T00:41:38;95028.91;;;25.62;64.68
61674;BME280;47573;43.832;5.974;2023-05-18T00:48:20;95025.34;;;25.57;64.72
61674;BME280;47573;43.832;5.974;2023-05-18T00:55:00;95037.91;;;25.58;64.43
61674;BME280;47573;43.832;5.974;2023-05-18T01:01:41;95032.94;;;25.49;64.50
61674;BME280;47573;43.832;5.974;2023-05-18T01:08:24;95045.53;;;25.50;64.43
61674;BME280;47573;43.832;5.974;2023-05-18T01:15:08;95043.31;;;25.47;64.35
61674;BME280;47573;43.832;5.974;2023-05-18T01:21:56;95048.50;;;25.44;64.44
61674;BME280;47573;43.832;5.974;2023-05-18T01:28:38;95047.66;;;25.43;64.08
61674;BME280;47573;43.832;5.974;2023-05-18T01:35:19;95052.00;;;25.39;64.01
61674;BME280;47573;43.832;5.974;2023-05-18T01:42:01;95050.38;;;25.38;64.21
61674;BME280;47573;43.832;5.974;2023-05-18T01:48:48;95054.16;;;25.32;64.05
61674;BME280;47573;43.832;5.974;2023-05-18T01:55:34;95049.75;;;25.31;64.04
61674;BME280;47573;43.832;5.974;2023-05-18T02:02:16;95059.56;;;25.27;63.98
61674;BME280;47573;43.832;5.974;2023-05-18T02:08:58;95056.56;;;25.24;63.92
61674;BME280;47573;43.832;5.974;2023-05-18T02:15:38;95053.00;;;25.23;63.94
61674;BME280;47573;43.832;5.974;2023-05-18T02:22:19;95051.88;;;25.19;64.04
61674;BME280;47573;43.832;5.974;2023-05-18T02:29:01;95056.22;;;25.15;64.24
61674;BME280;47573;43.832;5.974;2023-05-18T02:35:41;95061.13;;;25.13;63.90
61674;BME280;47573;43.832;5.974;2023-05-18T02:42:21;95051.81;;;25.09;64.00
61674;BME280;47573;43.832;5.974;2023-05-18T02:49:04;95049.03;;;25.04;64.10
61674;BME280;47573;43.832;5.974;2023-05-18T02:55:44;95046.56;;;25.03;64.11
61674;BME280;47573;43.832;5.974;2023-05-18T03:02:25;95040.53;;;25.01;63.88
61674;BME280;47573;43.832;5.974;2023-05-18T03:09:07;95042.72;;;24.99;63.95
61674;BME280;47573;43.832;5.974;2023-05-18T03:15:47;95044.06;;;24.96;63.88
61674;BME280;47573;43.832;5.974;2023-05-18T03:22:28;95049.78;;;24.95;63.98
61674;BME280;47573;43.832;5.974;2023-05-18T03:29:10;95051.13;;;24.92;63.63
61674;BME280;47573;43.832;5.974;2023-05-18T03:35:50;95048.66;;;24.91;63.53
61674;BME280;47573;43.832;5.974;2023-05-18T03:42:31;95055.47;;;24.88;63.59
61674;BME280;47573;43.832;5.974;2023-05-18T03:49:13;95061.44;;;24.85;63.73
61674;BME280;47573;43.832;5.974;2023-05-18T03:55:53;95061.97;;;24.82;63.83
61674;BME280;47573;43.832;5.974;2023-05-18T04:02:33;95072.34;;;24.80;63.98
61674;BME280;47573;43.832;5.974;2023-05-18T04:09:16;95077.25;;;24.78;63.76
61674;BME280;47573;43.832;5.974;2023-05-18T04:15:56;95075.28;;;24.73;63.83
61674;BME280;47573;43.832;5.974;2023-05-18T04:22:39;95079.88;;;24.73;63.82
61674;BME280;47573;43.832;5.974;2023-05-18T04:29:21;95082.59;;;24.68;63.91
61674;BME280;47573;43.832;5.974;2023-05-18T04:36:02;95081.47;;;24.69;63.74
61674;BME280;47573;43.832;5.974;2023-05-18T04:42:42;95091.28;;;24.65;63.83
61674;BME280;47573;43.832;5.974;2023-05-18T04:49:25;95092.88;;;24.61;64.10
61674;BME280;47573;43.832;5.974;2023-05-18T04:56:06;95096.13;;;24.58;63.97
61674;BME280;47573;43.832;5.974;2023-05-18T05:02:46;95097.22;;;24.57;64.14
61674;BME280;47573;43.832;5.974;2023-05-18T05:09:28;95093.91;;;24.55;64.14
61674;BME280;47573;43.832;5.974;2023-05-18T05:16:08;95096.66;;;24.55;64.12
61674;BME280;47573;43.832;5.974;2023-05-18T05:22:49;95098.25;;;24.51;63.90
61674;BME280;47573;43.832;5.974;2023-05-18T05:29:31;95094.94;;;24.49;63.96
61674;BME280;47573;43.832;5.974;2023-05-18T05:36:11;95105.88;;;24.49;64.37
61674;BME280;47573;43.832;5.974;2023-05-18T05:42:52;95113.22;;;24.48;64.18
61674;BME280;47573;43.832;5.974;2023-05-18T05:49:34;95117.63;;;24.49;64.13
61674;BME280;47573;43.832;5.974;2023-05-18T05:56:14;95114.31;;;24.47;64.52
61674;BME280;47573;43.832;5.974;2023-05-18T06:02:55;95116.78;;;24.49;64.23
61674;BME280;47573;43.832;5.974;2023-05-18T06:09:37;95119.44;;;24.44;64.38
61674;BME280;47573;43.832;5.974;2023-05-18T06:16:17;95115.13;;;24.48;64.43
61674;BME280;47573;43.832;5.974;2023-05-18T06:22:58;95132.63;;;24.52;64.31
61674;BME280;47573;43.832;5.974;2023-05-18T06:29:40;95132.34;;;24.48;64.33
61674;BME280;47573;43.832;5.974;2023-05-18T06:36:20;95137.78;;;24.48;64.67
61674;BME280;47573;43.832;5.974;2023-05-18T06:43:01;95139.13;;;24.46;64.55
61674;BME280;47573;43.832;5.974;2023-05-18T06:49:42;95140.78;;;24.47;64.26
61674;BME280;47573;43.832;5.974;2023-05-18T06:56:23;95139.13;;;24.46;64.42
61674;BME280;47573;43.832;5.974;2023-05-18T07:03:04;95158.50;;;24.44;64.59
61674;BME280;47573;43.832;5.974;2023-05-18T07:09:45;95148.91;;;24.42;64.33
61674;BME280;47573;43.832;5.974;2023-05-18T07:16:26;95142.94;;;24.45;64.37
61674;BME280;47573;43.832;5.974;2023-05-18T07:23:06;95146.75;;;24.44;64.39
61674;BME280;47573;43.832;5.974;2023-05-18T07:29:49;95156.03;;;24.43;64.37
61674;BME280;47573;43.832;5.974;2023-05-18T07:36:29;95166.09;;;24.42;64.17
61674;BME280;47573;43.832;5.974;2023-05-18T07:43:09;95155.50;;;24.46;64.35
61674;BME280;47573;43.832;5.974;2023-05-18T07:49:51;95164.78;;;24.45;64.42
61674;BME280;47573;43.832;5.974;2023-05-18T07:56:32;95159.63;;;24.48;64.02
61674;BME280;47573;43.832;5.974;2023-05-18T08:03:12;95164.25;;;24.48;63.96
61674;BME280;47573;43.832;5.974;2023-05-18T08:09:54;95171.94;;;24.51;63.98
61674;BME280;47573;43.832;5.974;2023-05-18T08:16:35;95170.84;;;24.52;63.91
61674;BME280;47573;43.832;5.974;2023-05-18T08:23:15;95179.66;;;24.59;63.46
61674;BME280;47573;43.832;5.974;2023-05-18T08:29:57;95178.06;;;24.63;63.33
61674;BME280;47573;43.832;5.974;2023-05-18T08:36:38;95168.81;;;24.64;63.22
61674;BME280;47573;43.832;5.974;2023-05-18T08:43:20;95162.31;;;24.70;62.80
61674;BME280;47573;43.832;5.974;2023-05-18T08:50:03;95169.75;;;24.74;62.90
61674;BME280;47573;43.832;5.974;2023-05-18T08:56:45;95175.41;;;24.68;62.75
61674;BME280;47573;43.832;5.974;2023-05-18T09:03:25;95175.53;;;24.78;62.84
61674;BME280;47573;43.832;5.974;2023-05-18T09:10:09;95181.00;;;24.78;62.74
61674;BME280;47573;43.832;5.974;2023-05-18T09:16:49;95181.00;;;24.78;62.57
61674;BME280;47573;43.832;5.974;2023-05-18T09:23:30;95188.72;;;24.86;62.14
61674;BME280;47573;43.832;5.974;2023-05-18T09:30:13;95194.69;;;24.83;62.15
61674;BME280;47573;43.832;5.974;2023-05-18T09:36:54;95187.63;;;24.87;61.95
61674;BME280;47573;43.832;5.974;2023-05-18T09:43:34;95185.44;;;24.84;62.19
61674;BME280;47573;43.832;5.974;2023-05-18T09:50:18;95177.75;;;24.81;62.25
61674;BME280;47573;43.832;5.974;2023-05-18T09:56:58;95182.97;;;24.83;62.09
61674;BME280;47573;43.832;5.974;2023-05-18T10:03:39;95174.22;;;24.81;62.40
61674;BME280;47573;43.832;5.974;2023-05-18T10:10:22;95178.31;;;24.83;62.06
61674;BME280;47573;43.832;5.974;2023-05-18T10:17:03;95178.38;;;24.88;62.15
61674;BME280;47573;43.832;5.974;2023-05-18T10:23:43;95182.75;;;24.89;61.84
61674;BME280;47573;43.832;5.974;2023-05-18T10:30:27;95170.19;;;24.88;61.96
61674;BME280;47573;43.832;5.974;2023-05-18T10:37:08;95163.59;;;24.84;62.02
61674;BME280;47573;43.832;5.974;2023-05-18T10:43:50;95169.56;;;24.81;60.27
61674;BME280;47573;43.832;5.974;2023-05-18T10:50:34;95168.94;;;24.74;61.60
61674;BME280;47573;43.832;5.974;2023-05-18T10:57:19;95170.38;;;24.60;62.95
61674;BME280;47573;43.832;5.974;2023-05-18T11:04:00;95165.47;;;24.57;62.55
61674;BME280;47573;43.832;5.974;2023-05-18T11:10:43;95164.88;;;24.55;62.68
61674;BME280;47573;43.832;5.974;2023-05-18T11:17:25;95168.06;;;24.47;63.48
61674;BME280;47573;43.832;5.974;2023-05-18T11:24:22;95160.66;;;24.42;62.88
61674;BME280;47573;43.832;5.974;2023-05-18T11:31:04;95153.69;;;24.30;63.59
61674;BME280;47573;43.832;5.974;2023-05-18T11:37:48;95167.44;;;24.40;64.11
61674;BME280;47573;43.832;5.974;2023-05-18T11:44:28;95173.91;;;24.34;63.85
61674;BME280;47573;43.832;5.974;2023-05-18T11:51:10;95187.50;;;24.29;62.70
61674;BME280;47573;43.832;5.974;2023-05-18T11:57:51;95169.63;;;24.16;63.06
61674;BME280;47573;43.832;5.974;2023-05-18T12:04:32;95180.72;;;24.10;63.77
61674;BME280;47573;43.832;5.974;2023-05-18T12:11:14;95184.19;;;24.27;63.47
61674;BME280;47573;43.832;5.974;2023-05-18T12:17:57;95196.88;;;24.59;63.02
61674;BME280;47573;43.832;5.974;2023-05-18T12:24:38;95192.50;;;24.58;62.73
61674;BME280;47573;43.832;5.974;2023-05-18T12:31:19;95184.66;;;24.67;64.36
61674;BME280;47573;43.832;5.974;2023-05-18T12:38:00;95171.47;;;24.59;63.85
61674;BME280;47573;43.832;5.974;2023-05-18T12:44:42;95174.72;;;24.78;63.36
61674;BME280;47573;43.832;5.974;2023-05-18T12:51:24;95175.16;;;24.96;63.10
61674;BME280;47573;43.832;5.974;2023-05-18T12:58:09;95175.81;;;25.08;63.47
61674;BME280;47573;43.832;5.974;2023-05-18T13:05:00;95183.53;;;25.16;63.31
61674;BME280;47573;43.832;5.974;2023-05-18T13:11:48;95197.75;;;25.18;63.71
61674;BME280;47573;43.832;5.974;2023-05-18T13:18:29;95201.69;;;25.27;63.35
61674;BME280;47573;43.832;5.974;2023-05-18T13:25:09;95213.44;;;25.28;63.67
61674;BME280;47573;43.832;5.974;2023-05-18T13:31:51;95220.88;;;25.32;63.86
61674;BME280;47573;43.832;5.974;2023-05-18T13:38:32;95223.06;;;25.35;63.90
61674;BME280;47573;43.832;5.974;2023-05-18T13:45:13;95219.81;;;25.38;64.06
61674;BME280;47573;43.832;5.974;2023-05-18T13:51:55;95205.38;;;25.43;64.28
61674;BME280;47573;43.832;5.974;2023-05-18T13:58:36;95198.06;;;25.48;64.19
61674;BME280;47573;43.832;5.974;2023-05-18T14:05:16;95197.53;;;25.51;64.38
61674;BME280;47573;43.832;5.974;2023-05-18T14:11:58;95200.88;;;25.59;64.62
61674;BME280;47573;43.832;5.974;2023-05-18T14:18:38;95203.09;;;25.62;64.82
61674;BME280;47573;43.832;5.974;2023-05-18T14:25:19;95204.78;;;25.68;64.81
61674;BME280;47573;43.832;5.974;2023-05-18T14:32:01;95206.47;;;25.74;64.62
61674;BME280;47573;43.832;5.974;2023-05-18T14:38:41;95208.09;;;25.75;64.94
61674;BME280;47573;43.832;5.974;2023-05-18T14:45:22;95193.91;;;25.78;64.95
61674;BME280;47573;43.832;5.974;2023-05-18T14:52:04;95201.56;;;25.81;65.07
61674;BME280;47573;43.832;5.974;2023-05-18T14:58:45;95199.38;;;25.83;65.14
61674;BME280;47573;43.832;5.974;2023-05-18T15:05:25;95199.94;;;25.85;65.62
61674;BME280;47573;43.832;5.974;2023-05-18T15:12:07;95192.84;;;25.89;65.63
61674;BME280;47573;43.832;5.974;2023-05-18T15:18:47;95192.34;;;25.92;65.57
61674;BME280;47573;43.832;5.974;2023-05-18T15:25:28;95190.69;;;25.91;65.89
61674;BME280;47573;43.832;5.974;2023-05-18T15:32:11;95193.47;;;25.96;65.88
61674;BME280;47573;43.832;5.974;2023-05-18T15:38:51;95184.97;;;25.97;65.87
61674;BME280;47573;43.832;5.974;2023-05-18T15:45:32;95180.34;;;25.98;66.18
61674;BME280;47573;43.832;5.974;2023-05-18T15:52:14;95182.81;;;25.99;66.37
61674;BME280;47573;43.832;5.974;2023-05-18T15:58:55;95197.88;;;26.02;66.04
61674;BME280;47573;43.832;5.974;2023-05-18T16:05:36;95212.09;;;26.04;66.11
61674;BME280;47573;43.832;5.974;2023-05-18T16:12:18;95214.09;;;26.08;66.51
61674;BME280;47573;43.832;5.974;2023-05-18T16:18:58;95216.56;;;26.10;66.20
61674;BME280;47573;43.832;5.974;2023-05-18T16:25:38;95231.34;;;26.09;66.49
61674;BME280;47573;43.832;5.974;2023-05-18T16:32:20;95207.28;;;26.11;66.74
61674;BME280;47573;43.832;5.974;2023-05-18T16:39:01;95195.25;;;26.17;66.56
61674;BME280;47573;43.832;5.974;2023-05-18T16:45:42;95201.84;;;26.21;66.71
61674;BME280;47573;43.832;5.974;2023-05-18T16:52:23;95201.06;;;26.25;66.70
61674;BME280;47573;43.832;5.974;2023-05-18T16:59:04;95202.97;;;26.25;67.04
61674;BME280;47573;43.832;5.974;2023-05-18T17:05:44;95203.78;;;26.25;67.07
61674;BME280;47573;43.832;5.974;2023-05-18T17:12:26;95186.56;;;26.30;67.08
61674;BME280;47573;43.832;5.974;2023-05-18T17:19:07;95188.75;;;26.33;67.16
61674;BME280;47573;43.832;5.974;2023-05-18T17:25:47;95189.59;;;26.34;67.38
61674;BME280;47573;43.832;5.974;2023-05-18T17:32:29;95192.88;;;26.36;67.38
61674;BME280;47573;43.832;5.974;2023-05-18T17:39:10;95205.19;;;26.33;67.75
61674;BME280;47573;43.832;5.974;2023-05-18T17:45:50;95209.31;;;26.36;67.79
61674;BME280;47573;43.832;5.974;2023-05-18T17:52:32;95214.81;;;26.41;67.89
61674;BME280;47573;43.832;5.974;2023-05-18T17:59:13;95198.63;;;26.39;67.92
61674;BME280;47573;43.832;5.974;2023-05-18T18:05:53;95217.56;;;26.41;68.12
61674;BME280;47573;43.832;5.974;2023-05-18T18:12:35;95216.19;;;26.43;67.91
61674;BME280;47573;43.832;5.974;2023-05-18T18:19:16;95205.22;;;26.43;68.05
61674;BME280;47573;43.832;5.974;2023-05-18T18:25:57;95206.06;;;26.44;68.05
61674;BME280;47573;43.832;5.974;2023-05-18T18:32:39;95215.66;;;26.46;68.04
61674;BME280;47573;43.832;5.974;2023-05-18T18:39:19;95210.13;;;26.36;68.10
61674;BME280;47573;43.832;5.974;2023-05-18T18:46:00;95215.56;;;26.26;67.99
61674;BME280;47573;43.832;5.974;2023-05-18T18:52:42;95211.69;;;26.17;67.92
61674;BME280;47573;43.832;5.974;2023-05-18T18:59:22;95212.47;;;26.12;68.33
61674;BME280;47573;43.832;5.974;2023-05-18T19:06:03;95219.34;;;26.15;67.98
61674;BME280;47573;43.832;5.974;2023-05-18T19:12:45;95209.44;;;26.09;68.04
61674;BME280;47573;43.832;5.974;2023-05-18T19:19:25;95217.59;;;26.04;67.73
61674;BME280;47573;43.832;5.974;2023-05-18T19:26:06;95229.09;;;26.06;68.21
61674;BME280;47573;43.832;5.974;2023-05-18T19:32:49;95237.28;;;26.06;69.07
61674;BME280;47573;43.832;5.974;2023-05-18T19:39:30;95240.63;;;26.08;71.73
61674;BME280;47573;43.832;5.974;2023-05-18T19:46:10;95244.75;;;26.10;73.22
61674;BME280;47573;43.832;5.974;2023-05-18T19:52:52;95245.25;;;26.07;75.76
61674;BME280;47573;43.832;5.974;2023-05-18T19:59:33;95252.69;;;26.12;75.91
61674;BME280;47573;43.832;5.974;2023-05-18T20:06:14;95263.06;;;26.10;76.65
61674;BME280;47573;43.832;5.974;2023-05-18T20:12:56;95257.59;;;26.10;76.78
61674;BME280;47573;43.832;5.974;2023-05-18T20:19:36;95254.25;;;26.03;75.82
61674;BME280;47573;43.832;5.974;2023-05-18T20:26:17;95256.44;;;26.01;74.89
61674;BME280;47573;43.832;5.974;2023-05-18T20:32:58;95248.19;;;25.96;73.99
61674;BME280;47573;43.832;5.974;2023-05-18T20:39:39;95245.72;;;25.94;73.72
61674;BME280;47573;43.832;5.974;2023-05-18T20:46:19;95244.59;;;25.90;73.18
61674;BME280;47573;43.832;5.974;2023-05-18T20:53:01;95238.81;;;25.87;72.48
61674;BME280;47573;43.832;5.974;2023-05-18T20:59:42;95243.16;;;25.83;71.98
61674;BME280;47573;43.832;5.974;2023-05-18T21:06:23;95252.97;;;25.79;71.92
61674;BME280;47573;43.832;5.974;2023-05-18T21:13:05;95260.38;;;25.78;71.38
61674;BME280;47573;43.832;5.974;2023-05-18T21:19:45;95253.28;;;25.82;71.17
61674;BME280;47573;43.832;5.974;2023-05-18T21:26:26;95253.50;;;25.76;70.97
61674;BME280;47573;43.832;5.974;2023-05-18T21:33:08;95257.31;;;25.75;70.79
61674;BME280;47573;43.832;5.974;2023-05-18T21:39:48;95250.72;;;25.71;70.71
61674;BME280;47573;43.832;5.974;2023-05-18T21:46:29;95257.88;;;25.72;70.74
61674;BME280;47573;43.832;5.974;2023-05-18T21:53:11;95247.44;;;25.69;70.41
61674;BME280;47573;43.832;5.974;2023-05-18T21:59:51;95242.50;;;25.66;70.21
61674;BME280;47573;43.832;5.974;2023-05-18T22:06:31;95243.53;;;25.60;70.06
61674;BME280;47573;43.832;5.974;2023-05-18T22:13:13;95236.97;;;25.61;69.69
61674;BME280;47573;43.832;5.974;2023-05-18T22:19:54;95246.25;;;25.60;69.58
61674;BME280;47573;43.832;5.974;2023-05-18T22:26:34;95241.31;;;25.57;69.36
61674;BME280;47573;43.832;5.974;2023-05-18T22:33:16;95227.09;;;25.55;69.25
61674;BME280;47573;43.832;5.974;2023-05-18T22:39:57;95230.34;;;25.51;69.07
61674;BME280;47573;43.832;5.974;2023-05-18T22:46:38;95227.88;;;25.50;69.05
61674;BME280;47573;43.832;5.974;2023-05-18T22:53:20;95231.16;;;25.47;68.88
61674;BME280;47573;43.832;5.974;2023-05-18T23:00:00;95220.44;;;25.45;68.38
61674;BME280;47573;43.832;5.974;2023-05-18T23:06:40;95222.06;;;25.41;68.55
61674;BME280;47573;43.832;5.974;2023-05-18T23:13:23;95206.66;;;25.35;68.88
61674;BME280;47573;43.832;5.974;2023-05-18T23:20:04;95208.56;;;25.35;68.41
61674;BME280;47573;43.832;5.974;2023-05-18T23:26:44;95199.00;;;25.32;68.52
61674;BME280;47573;43.832;5.974;2023-05-18T23:33:27;95200.63;;;25.33;68.20
61674;BME280;47573;43.832;5.974;2023-05-18T23:40:09;95206.66;;;25.30;68.70
61674;BME280;47573;43.832;5.974;2023-05-18T23:46:51;95201.69;;;25.27;68.31
61674;BME280;47573;43.832;5.974;2023-05-18T23:53:33;95205.47;;;25.26;68.17
